EPWR Airport Information

Runway Information
Runway 12 Length 8202 ft width 197 ft
Elevation 404 ft Threshold 0 ft Heading 116
Runway 30 Length 8202 ft Width 197 ft
Elevation 400 ft Threshold 0 ft Heading 296
Airport Frequencies
Type TWR Name WROCLAW TW Frequency 127.225 MHZ
Airport Navaids
Type NDB Name Wroclaw Frequency 255 KHZ
Type NDB Name Wroclaw Frequency 525 KHZ
Type VOR-DME Name Trzebnica Frequency 113600 KHZ
Airport Weather Information & NOTAM
ADDS - METARS form results

(2355 UTC 22 April 2019)
Data provider http://aviationweather.gov/metar/data/
 
METAR text: EPWR 222330Z 09011KT CAVOK 10/00 Q1016
Conditions at: EPWR (WROCLAW/STRACHOW, PL) observed 2330 UTC 22 April 2019
Temperature: 10.0°C (50°F)
Dewpoint: 0.0°C (32°F) [RH = 50%]
Pressure (altimeter): 30.00 inches Hg (1016.0 mb)
Winds: from the E (90 degrees) at 13 MPH (11 knots; 5.7 m/s)
Visibility: 6 or more miles (10+ km)
Ceiling: ceiling and visibility are OK
Clouds: unknown
Weather: no significant weather observed at this time

METAR text: EPWR 222300Z 10012KT CAVOK 11/01 Q1016
Conditions at: EPWR (WROCLAW/STRACHOW, PL) observed 2300 UTC 22 April 2019
Temperature: 11.0°C (52°F)
Dewpoint: 1.0°C (34°F) [RH = 50%]
Pressure (altimeter): 30.00 inches Hg (1016.0 mb)
Winds: from the E (100 degrees) at 14 MPH (12 knots; 6.2 m/s)
Visibility: 6 or more miles (10+ km)
Ceiling: ceiling and visibility are OK
Clouds: unknown
Weather: no significant weather observed at this time

Forecast for: EPWR (WROCLAW/STRACHOW, PL)
Text: TAF EPWR 222330Z 2300/2324 09015KT CAVOK
Forecast period: 0000 UTC 23 April 2019 to 0000 UTC 24 April 2019
Forecast type: FROM: standard forecast or significant change
Winds: from the E (90 degrees) at 17 MPH (15 knots; 7.7 m/s)
Visibility: 6 or more miles 10+ km)
Ceiling: unknown
Clouds: missing
Weather: NSW  (no significant weather)
Text: TEMPO 2300/2306 10016G26KT
Forecast period: 0000 to 0600 UTC 23 April 2019
Forecast type: TEMPORARY: The following changes expected for less than half the time period
Winds: from the E (100 degrees) at 18 MPH (16 knots; 8.2 m/s)
gusting to 30 MPH (26 knots; 13.4 m/s)
Visibility: missing
Ceiling: unknown
Clouds: missing
Weather: no significant weather forecast for this period
Text: TEMPO 2306/2324 12020G35KT
Forecast period: 0600 UTC 23 April 2019 to 0000 UTC 24 April 2019
Forecast type: TEMPORARY: The following changes expected for less than half the time period
Winds: from the ESE (120 degrees) at 23 MPH (20 knots; 10.3 m/s)
gusting to 40 MPH (35 knots; 18.0 m/s)
Visibility: missing
Ceiling: unknown
Clouds: missing
Weather: no significant weather forecast for this period
Text: PROB40
Forecast period: 1200 UTC 23 April 2019 to 0000 UTC 24 April 2019
Forecast type: TEMPORARY: The following changes expected for less than half the time period
Visibility: missing
Ceiling: 3300 feet AGL
Clouds: broken clouds at 3300 feet AGL
Weather: -SHRA  (light rain showers)